Terminal Aerodrome Forecast
Issued by NWS Louisville, KY

Home | Current Version | Previous Version | Graphics & Text | Print | Product List | Glossary On
Versions: 1 2 3 4 5 6 7 8 9 10 11 12 13 14 15 16 17 18
000
FTUS43 KLMK 032300
TAFLEX
TAF
KLEX 032325Z 0400/0424 20015G22KT P6SM OVC016
     FM040200 22013KT 3SM -RA BR BKN009
     FM040800 32008KT 3SM -RA BR BKN006
     FM041700 34009KT 2SM -SN BR BKN007
      TEMPO 0418/0422 3/4SM -SN VV004=

USA.gov is the U.S. government's official web portal to all federal, state and local government web resources and services.